sensor_id;sensor_type;location;lat;lon;timestamp;temperature;humidity
42365;DHT22;28498;54.400;18.566;2022-12-10T00:04:14;-2.00;99.90
42365;DHT22;28498;54.400;18.566;2022-12-10T00:06:42;-2.00;99.90
42365;DHT22;28498;54.400;18.566;2022-12-10T00:09:16;-2.00;99.90
42365;DHT22;28498;54.400;18.566;2022-12-10T00:11:43;-2.00;99.90
42365;DHT22;28498;54.400;18.566;2022-12-10T00:14:12;-2.00;99.90
42365;DHT22;28498;54.400;18.566;2022-12-10T00:16:39;-2.00;99.90
42365;DHT22;28498;54.400;18.566;2022-12-10T00:19:07;-1.90;99.90
42365;DHT22;28498;54.400;18.566;2022-12-10T00:21:35;-1.90;99.90
42365;DHT22;28498;54.400;18.566;2022-12-10T00:24:04;-1.80;99.90
42365;DHT22;28498;54.400;18.566;2022-12-10T00:26:40;-1.90;99.90
42365;DHT22;28498;54.400;18.566;2022-12-10T00:29:10;-1.90;99.90
42365;DHT22;28498;54.400;18.566;2022-12-10T00:31:38;-1.90;99.90
42365;DHT22;28498;54.400;18.566;2022-12-10T00:34:07;-1.90;99.90
42365;DHT22;28498;54.400;18.566;2022-12-10T00:36:37;-1.90;99.90
42365;DHT22;28498;54.400;18.566;2022-12-10T00:39:05;-1.90;99.90
42365;DHT22;28498;54.400;18.566;2022-12-10T00:41:32;-1.90;99.90
42365;DHT22;28498;54.400;18.566;2022-12-10T00:46:27;-1.90;99.90
42365;DHT22;28498;54.400;18.566;2022-12-10T00:48:54;-1.90;99.90
42365;DHT22;28498;54.400;18.566;2022-12-10T00:51:23;-1.90;99.90
42365;DHT22;28498;54.400;18.566;2022-12-10T00:53:52;-2.00;99.90
42365;DHT22;28498;54.400;18.566;2022-12-10T00:56:22;-2.00;99.90
42365;DHT22;28498;54.400;18.566;2022-12-10T00:58:50;-1.90;99.90
42365;DHT22;28498;54.400;18.566;2022-12-10T01:01:29;-2.00;99.90
42365;DHT22;28498;54.400;18.566;2022-12-10T01:04:02;-2.00;99.90
42365;DHT22;28498;54.400;18.566;2022-12-10T01:06:40;-2.10;99.90
42365;DHT22;28498;54.400;18.566;2022-12-10T01:09:10;-2.10;99.90
42365;DHT22;28498;54.400;18.566;2022-12-10T01:11:39;-2.10;99.90
42365;DHT22;28498;54.400;18.566;2022-12-10T01:14:08;-2.10;99.90
42365;DHT22;28498;54.400;18.566;2022-12-10T01:16:36;-2.10;99.90
42365;DHT22;28498;54.400;18.566;2022-12-10T01:21:30;-2.20;99.90
42365;DHT22;28498;54.400;18.566;2022-12-10T01:23:58;-2.20;99.90
42365;DHT22;28498;54.400;18.566;2022-12-10T01:26:30;-2.20;99.90
42365;DHT22;28498;54.400;18.566;2022-12-10T01:28:58;-2.20;99.90
42365;DHT22;28498;54.400;18.566;2022-12-10T01:31:36;-2.20;99.90
42365;DHT22;28498;54.400;18.566;2022-12-10T01:34:04;-2.10;99.90
42365;DHT22;28498;54.400;18.566;2022-12-10T01:36:40;-2.10;99.90
42365;DHT22;28498;54.400;18.566;2022-12-10T01:39:10;-2.20;99.90
42365;DHT22;28498;54.400;18.566;2022-12-10T01:41:40;-2.10;99.90
42365;DHT22;28498;54.400;18.566;2022-12-10T01:46:37;-2.10;99.90
42365;DHT22;28498;54.400;18.566;2022-12-10T01:49:07;-2.00;99.90
42365;DHT22;28498;54.400;18.566;2022-12-10T01:51:37;-2.00;99.90
42365;DHT22;28498;54.400;18.566;2022-12-10T01:54:08;-2.10;99.90
42365;DHT22;28498;54.400;18.566;2022-12-10T01:56:46;-2.10;99.90
42365;DHT22;28498;54.400;18.566;2022-12-10T01:59:14;-2.10;99.90
42365;DHT22;28498;54.400;18.566;2022-12-10T02:12:48;-1.90;99.90
42365;DHT22;28498;54.400;18.566;2022-12-10T02:15:20;-1.90;99.90
42365;DHT22;28498;54.400;18.566;2022-12-10T02:17:52;-1.80;99.90
42365;DHT22;28498;54.400;18.566;2022-12-10T02:20:33;-2.00;99.90
42365;DHT22;28498;54.400;18.566;2022-12-10T02:25:56;-1.80;99.90
42365;DHT22;28498;54.400;18.566;2022-12-10T02:29:04;-1.80;99.90
42365;DHT22;28498;54.400;18.566;2022-12-10T02:31:32;-1.80;99.90
42365;DHT22;28498;54.400;18.566;2022-12-10T02:34:02;-1.70;99.90
42365;DHT22;28498;54.400;18.566;2022-12-10T02:36:33;-1.70;99.90
42365;DHT22;28498;54.400;18.566;2022-12-10T02:39:03;-1.70;99.90
42365;DHT22;28498;54.400;18.566;2022-12-10T02:41:35;-1.60;99.90
42365;DHT22;28498;54.400;18.566;2022-12-10T02:44:08;-1.60;99.90
42365;DHT22;28498;54.400;18.566;2022-12-10T02:46:36;-1.60;99.90
42365;DHT22;28498;54.400;18.566;2022-12-10T02:49:06;-1.50;99.90
42365;DHT22;28498;54.400;18.566;2022-12-10T02:54:03;-1.50;99.90
42365;DHT22;28498;54.400;18.566;2022-12-10T02:56:41;-1.40;99.90
42365;DHT22;28498;54.400;18.566;2022-12-10T03:02:12;-1.30;99.90
42365;DHT22;28498;54.400;18.566;2022-12-10T03:04:57;-1.40;99.90
42365;DHT22;28498;54.400;18.566;2022-12-10T03:07:33;-1.40;99.90
42365;DHT22;28498;54.400;18.566;2022-12-10T03:10:24;-1.40;99.90
42365;DHT22;28498;54.400;18.566;2022-12-10T03:12:59;-1.40;99.90
42365;DHT22;28498;54.400;18.566;2022-12-10T03:15:29;-1.40;99.90
42365;DHT22;28498;54.400;18.566;2022-12-10T03:17:57;-1.40;99.90
42365;DHT22;28498;54.400;18.566;2022-12-10T03:20:26;-1.40;99.90
42365;DHT22;28498;54.400;18.566;2022-12-10T03:22:53;-1.40;99.90
42365;DHT22;28498;54.400;18.566;2022-12-10T03:25:24;-1.40;99.90
42365;DHT22;28498;54.400;18.566;2022-12-10T03:27:54;-1.30;99.90
42365;DHT22;28498;54.400;18.566;2022-12-10T03:30:22;-1.30;99.90
42365;DHT22;28498;54.400;18.566;2022-12-10T03:35:19;-1.30;99.90
42365;DHT22;28498;54.400;18.566;2022-12-10T03:40:20;-1.30;99.90
42365;DHT22;28498;54.400;18.566;2022-12-10T03:42:48;-1.30;99.90
42365;DHT22;28498;54.400;18.566;2022-12-10T03:47:42;-1.30;99.90
42365;DHT22;28498;54.400;18.566;2022-12-10T03:55:05;-1.40;99.90
42365;DHT22;28498;54.400;18.566;2022-12-10T03:57:34;-1.40;99.90
42365;DHT22;28498;54.400;18.566;2022-12-10T04:09:50;-1.40;99.90
42365;DHT22;28498;54.400;18.566;2022-12-10T04:12:17;-1.40;99.90
42365;DHT22;28498;54.400;18.566;2022-12-10T04:17:32;-1.50;99.90
42365;DHT22;28498;54.400;18.566;2022-12-10T04:20:00;-1.50;99.90
42365;DHT22;28498;54.400;18.566;2022-12-10T04:25:13;-1.50;99.90
42365;DHT22;28498;54.400;18.566;2022-12-10T04:32:53;-1.50;99.90
42365;DHT22;28498;54.400;18.566;2022-12-10T04:35:20;-1.50;99.90
42365;DHT22;28498;54.400;18.566;2022-12-10T04:37:47;-1.50;99.90
42365;DHT22;28498;54.400;18.566;2022-12-10T04:40:14;-1.60;99.90
42365;DHT22;28498;54.400;18.566;2022-12-10T04:42:41;-1.50;99.90
42365;DHT22;28498;54.400;18.566;2022-12-10T04:45:08;-1.60;99.90
42365;DHT22;28498;54.400;18.566;2022-12-10T04:47:35;-1.60;99.90
42365;DHT22;28498;54.400;18.566;2022-12-10T04:52:29;-1.60;99.90
42365;DHT22;28498;54.400;18.566;2022-12-10T04:54:56;-1.60;99.90
42365;DHT22;28498;54.400;18.566;2022-12-10T04:59:50;-1.60;99.90
42365;DHT22;28498;54.400;18.566;2022-12-10T05:22:03;-1.70;99.90
42365;DHT22;28498;54.400;18.566;2022-12-10T05:27:16;-1.80;99.90
42365;DHT22;28498;54.400;18.566;2022-12-10T05:29:43;-1.70;99.90
42365;DHT22;28498;54.400;18.566;2022-12-10T05:34:37;-1.60;99.90
42365;DHT22;28498;54.400;18.566;2022-12-10T05:37:04;-1.70;99.90
42365;DHT22;28498;54.400;18.566;2022-12-10T05:41:59;-1.70;99.90
42365;DHT22;28498;54.400;18.566;2022-12-10T05:49:20;-1.70;99.90
42365;DHT22;28498;54.400;18.566;2022-12-10T06:06:38;-1.70;99.90
42365;DHT22;28498;54.400;18.566;2022-12-10T06:09:09;-1.70;99.90
42365;DHT22;28498;54.400;18.566;2022-12-10T06:26:24;-1.70;99.90
42365;DHT22;28498;54.400;18.566;2022-12-10T06:28:52;-1.70;99.90
42365;DHT22;28498;54.400;18.566;2022-12-10T06:33:47;-1.70;99.90
42365;DHT22;28498;54.400;18.566;2022-12-10T06:36:16;-1.70;99.90
42365;DHT22;28498;54.400;18.566;2022-12-10T06:38:44;-1.70;99.90
42365;DHT22;28498;54.400;18.566;2022-12-10T06:41:14;-1.70;99.90
42365;DHT22;28498;54.400;18.566;2022-12-10T06:46:10;-1.70;99.90
42365;DHT22;28498;54.400;18.566;2022-12-10T06:51:06;-1.70;99.90
42365;DHT22;28498;54.400;18.566;2022-12-10T06:53:35;-1.70;99.90
42365;DHT22;28498;54.400;18.566;2022-12-10T06:56:04;-1.70;99.90
42365;DHT22;28498;54.400;18.566;2022-12-10T06:58:33;-1.70;99.90
42365;DHT22;28498;54.400;18.566;2022-12-10T07:01:12;-1.70;99.90
42365;DHT22;28498;54.400;18.566;2022-12-10T07:03:40;2.70;99.90
42365;DHT22;28498;54.400;18.566;2022-12-10T07:06:07;-1.60;99.90
42365;DHT22;28498;54.400;18.566;2022-12-10T07:08:35;-1.70;99.90
42365;DHT22;28498;54.400;18.566;2022-12-10T07:11:07;-1.80;99.90
42365;DHT22;28498;54.400;18.566;2022-12-10T07:13:35;-1.80;99.90
42365;DHT22;28498;54.400;18.566;2022-12-10T07:16:10;-1.80;99.90
42365;DHT22;28498;54.400;18.566;2022-12-10T07:18:38;-1.70;99.90
42365;DHT22;28498;54.400;18.566;2022-12-10T07:21:16;-1.80;99.90
42365;DHT22;28498;54.400;18.566;2022-12-10T07:23:43;-1.90;99.90
42365;DHT22;28498;54.400;18.566;2022-12-10T07:26:10;-1.80;99.90
42365;DHT22;28498;54.400;18.566;2022-12-10T07:41:10;-1.80;99.90
42365;DHT22;28498;54.400;18.566;2022-12-10T07:43:39;-1.80;99.90
42365;DHT22;28498;54.400;18.566;2022-12-10T07:46:09;-1.90;99.90
42365;DHT22;28498;54.400;18.566;2022-12-10T07:48:38;-1.90;99.90
42365;DHT22;28498;54.400;18.566;2022-12-10T08:06:09;-1.80;99.90
42365;DHT22;28498;54.400;18.566;2022-12-10T08:08:37;-1.70;99.90
42365;DHT22;28498;54.400;18.566;2022-12-10T08:11:05;-1.70;99.90
42365;DHT22;28498;54.400;18.566;2022-12-10T08:13:33;-1.60;99.90
42365;DHT22;28498;54.400;18.566;2022-12-10T08:16:09;-1.60;99.90
42365;DHT22;28498;54.400;18.566;2022-12-10T08:18:37;-1.60;99.90
42365;DHT22;28498;54.400;18.566;2022-12-10T08:21:09;-1.60;99.90
42365;DHT22;28498;54.400;18.566;2022-12-10T08:23:36;-1.60;99.90
42365;DHT22;28498;54.400;18.566;2022-12-10T08:26:13;-1.70;99.90
42365;DHT22;28498;54.400;18.566;2022-12-10T08:28:40;-1.70;99.90
42365;DHT22;28498;54.400;18.566;2022-12-10T08:31:08;-1.80;99.90
42365;DHT22;28498;54.400;18.566;2022-12-10T08:33:37;-1.80;99.90
42365;DHT22;28498;54.400;18.566;2022-12-10T08:36:06;-1.80;99.90
42365;DHT22;28498;54.400;18.566;2022-12-10T08:41:06;-1.80;99.90
42365;DHT22;28498;54.400;18.566;2022-12-10T08:48:29;-1.60;99.90
42365;DHT22;28498;54.400;18.566;2022-12-10T08:50:57;-1.50;99.90
42365;DHT22;28498;54.400;18.566;2022-12-10T08:53:24;-1.60;99.90
42365;DHT22;28498;54.400;18.566;2022-12-10T08:55:52;-1.50;99.90
42365;DHT22;28498;54.400;18.566;2022-12-10T08:58:20;-1.40;99.90
42365;DHT22;28498;54.400;18.566;2022-12-10T09:00:48;-1.40;99.90
42365;DHT22;28498;54.400;18.566;2022-12-10T09:03:16;-1.40;99.90
42365;DHT22;28498;54.400;18.566;2022-12-10T09:05:44;-1.40;99.90
42365;DHT22;28498;54.400;18.566;2022-12-10T09:08:11;-1.30;99.90
42365;DHT22;28498;54.400;18.566;2022-12-10T09:10:39;-1.40;99.90
42365;DHT22;28498;54.400;18.566;2022-12-10T09:13:07;-1.30;99.90
42365;DHT22;28498;54.400;18.566;2022-12-10T09:15:34;-1.30;99.90
42365;DHT22;28498;54.400;18.566;2022-12-10T09:18:01;-1.30;99.90
42365;DHT22;28498;54.400;18.566;2022-12-10T09:22:55;-1.20;99.90
42365;DHT22;28498;54.400;18.566;2022-12-10T09:25:22;-1.20;99.90
42365;DHT22;28498;54.400;18.566;2022-12-10T09:31:30;-0.90;99.90
42365;DHT22;28498;54.400;18.566;2022-12-10T09:33:58;-1.10;99.90
42365;DHT22;28498;54.400;18.566;2022-12-10T09:41:35;-1.10;99.90
42365;DHT22;28498;54.400;18.566;2022-12-10T09:47:08;-0.80;99.90
42365;DHT22;28498;54.400;18.566;2022-12-10T09:52:19;-0.60;99.90
42365;DHT22;28498;54.400;18.566;2022-12-10T09:54:52;-0.60;99.90
42365;DHT22;28498;54.400;18.566;2022-12-10T09:57:28;-0.40;99.90
42365;DHT22;28498;54.400;18.566;2022-12-10T09:59:56;-0.40;99.90
42365;DHT22;28498;54.400;18.566;2022-12-10T10:02:29;-0.50;99.90
42365;DHT22;28498;54.400;18.566;2022-12-10T10:07:44;-0.70;99.90
42365;DHT22;28498;54.400;18.566;2022-12-10T10:15:39;0.10;99.90
42365;DHT22;28498;54.400;18.566;2022-12-10T10:21:53;0.20;99.90
42365;DHT22;28498;54.400;18.566;2022-12-10T10:24:24;0.00;99.90
42365;DHT22;28498;54.400;18.566;2022-12-10T10:26:57;0.00;99.90
42365;DHT22;28498;54.400;18.566;2022-12-10T10:33:13;0.10;99.90
42365;DHT22;28498;54.400;18.566;2022-12-10T10:35:52;0.30;99.90
42365;DHT22;28498;54.400;18.566;2022-12-10T10:38:23;0.40;99.90
42365;DHT22;28498;54.400;18.566;2022-12-10T10:40:55;0.30;99.90
42365;DHT22;28498;54.400;18.566;2022-12-10T10:43:26;0.40;99.90
42365;DHT22;28498;54.400;18.566;2022-12-10T10:45:58;0.20;99.90
42365;DHT22;28498;54.400;18.566;2022-12-10T10:48:27;0.20;99.90
42365;DHT22;28498;54.400;18.566;2022-12-10T10:51:08;0.10;99.90
42365;DHT22;28498;54.400;18.566;2022-12-10T11:01:45;0.10;99.90
42365;DHT22;28498;54.400;18.566;2022-12-10T11:04:14;0.10;99.90
42365;DHT22;28498;54.400;18.566;2022-12-10T11:06:43;0.10;99.90
42365;DHT22;28498;54.400;18.566;2022-12-10T11:09:24;0.10;99.90
42365;DHT22;28498;54.400;18.566;2022-12-10T11:11:59;0.20;99.90
42365;DHT22;28498;54.400;18.566;2022-12-10T11:14:31;0.40;99.90
42365;DHT22;28498;54.400;18.566;2022-12-10T11:19:43;0.80;99.90
42365;DHT22;28498;54.400;18.566;2022-12-10T11:22:22;0.80;99.90
42365;DHT22;28498;54.400;18.566;2022-12-10T11:24:50;0.80;99.90
42365;DHT22;28498;54.400;18.566;2022-12-10T11:27:27;0.80;99.90
42365;DHT22;28498;54.400;18.566;2022-12-10T11:48:21;0.90;99.90
42365;DHT22;28498;54.400;18.566;2022-12-10T12:01:20;0.90;99.90
42365;DHT22;28498;54.400;18.566;2022-12-10T12:04:14;0.90;99.90
42365;DHT22;28498;54.400;18.566;2022-12-10T12:12:58;0.70;99.90
42365;DHT22;28498;54.400;18.566;2022-12-10T12:15:49;0.70;99.90
42365;DHT22;28498;54.400;18.566;2022-12-10T12:18:29;0.70;99.90
42365;DHT22;28498;54.400;18.566;2022-12-10T12:21:02;0.80;99.90
42365;DHT22;28498;54.400;18.566;2022-12-10T12:24:11;0.70;99.90
42365;DHT22;28498;54.400;18.566;2022-12-10T12:26:42;0.60;99.90
42365;DHT22;28498;54.400;18.566;2022-12-10T12:32:07;0.20;99.90
42365;DHT22;28498;54.400;18.566;2022-12-10T12:34:59;0.00;99.90
42365;DHT22;28498;54.400;18.566;2022-12-10T12:37:40;-0.10;99.90
42365;DHT22;28498;54.400;18.566;2022-12-10T12:45:38;-0.40;99.90
42365;DHT22;28498;54.400;18.566;2022-12-10T12:48:10;-0.50;99.90
42365;DHT22;28498;54.400;18.566;2022-12-10T12:50:43;-0.50;99.90
42365;DHT22;28498;54.400;18.566;2022-12-10T12:53:15;-0.60;99.90
42365;DHT22;28498;54.400;18.566;2022-12-10T12:59:48;-0.80;99.90
42365;DHT22;28498;54.400;18.566;2022-12-10T13:13:40;-1.30;99.90
42365;DHT22;28498;54.400;18.566;2022-12-10T13:29:45;-1.80;99.90
42365;DHT22;28498;54.400;18.566;2022-12-10T13:32:22;-1.80;99.90
42365;DHT22;28498;54.400;18.566;2022-12-10T13:35:23;-1.90;99.90
42365;DHT22;28498;54.400;18.566;2022-12-10T13:46:30;-2.10;99.90
42365;DHT22;28498;54.400;18.566;2022-12-10T13:49:02;-2.20;99.90
42365;DHT22;28498;54.400;18.566;2022-12-10T14:08:40;-3.00;99.90
42365;DHT22;28498;54.400;18.566;2022-12-10T14:11:20;-3.20;99.90
42365;DHT22;28498;54.400;18.566;2022-12-10T14:13:53;-3.20;99.90
42365;DHT22;28498;54.400;18.566;2022-12-10T14:16:22;-3.20;99.90
42365;DHT22;28498;54.400;18.566;2022-12-10T14:18:57;-3.30;99.90
42365;DHT22;28498;54.400;18.566;2022-12-10T14:21:25;-3.30;99.90
42365;DHT22;28498;54.400;18.566;2022-12-10T14:26:32;-3.10;99.90
42365;DHT22;28498;54.400;18.566;2022-12-10T14:29:08;-3.20;99.90
42365;DHT22;28498;54.400;18.566;2022-12-10T14:31:41;-3.30;99.90
42365;DHT22;28498;54.400;18.566;2022-12-10T14:34:21;-3.40;99.90
42365;DHT22;28498;54.400;18.566;2022-12-10T14:36:54;-3.40;99.90
42365;DHT22;28498;54.400;18.566;2022-12-10T14:39:26;-3.40;99.90
42365;DHT22;28498;54.400;18.566;2022-12-10T14:42:01;-3.50;99.90
42365;DHT22;28498;54.400;18.566;2022-12-10T14:44:30;-3.60;99.90
42365;DHT22;28498;54.400;18.566;2022-12-10T14:47:15;-3.60;99.90
42365;DHT22;28498;54.400;18.566;2022-12-10T14:49:43;-3.50;99.90
42365;DHT22;28498;54.400;18.566;2022-12-10T14:52:23;-3.60;99.90
42365;DHT22;28498;54.400;18.566;2022-12-10T14:54:51;-3.70;99.90
42365;DHT22;28498;54.400;18.566;2022-12-10T14:57:43;-3.60;99.90
42365;DHT22;28498;54.400;18.566;2022-12-10T15:00:19;-3.80;99.90
42365;DHT22;28498;54.400;18.566;2022-12-10T15:02:51;-3.90;99.90
42365;DHT22;28498;54.400;18.566;2022-12-10T15:05:23;-3.70;99.90
42365;DHT22;28498;54.400;18.566;2022-12-10T15:13:01;-3.80;99.90
42365;DHT22;28498;54.400;18.566;2022-12-10T15:20:38;-4.00;99.90
42365;DHT22;28498;54.400;18.566;2022-12-10T15:25:45;-4.10;99.90
42365;DHT22;28498;54.400;18.566;2022-12-10T15:28:32;-4.20;99.90
42365;DHT22;28498;54.400;18.566;2022-12-10T15:34:12;-4.20;99.90
42365;DHT22;28498;54.400;18.566;2022-12-10T15:41:46;-4.10;99.90
42365;DHT22;28498;54.400;18.566;2022-12-10T15:47:12;-4.00;99.90
42365;DHT22;28498;54.400;18.566;2022-12-10T15:52:16;-3.80;99.90
42365;DHT22;28498;54.400;18.566;2022-12-10T15:54:46;-3.80;99.90
42365;DHT22;28498;54.400;18.566;2022-12-10T15:57:21;-3.80;99.90
42365;DHT22;28498;54.400;18.566;2022-12-10T15:59:51;-3.50;99.90
42365;DHT22;28498;54.400;18.566;2022-12-10T16:05:16;-3.60;99.90
42365;DHT22;28498;54.400;18.566;2022-12-10T16:07:44;-3.60;99.90
42365;DHT22;28498;54.400;18.566;2022-12-10T16:10:13;-3.60;99.90
42365;DHT22;28498;54.400;18.566;2022-12-10T16:12:41;-3.40;99.90
42365;DHT22;28498;54.400;18.566;2022-12-10T16:15:18;-3.40;99.90
42365;DHT22;28498;54.400;18.566;2022-12-10T16:20:29;-3.40;99.90
42365;DHT22;28498;54.400;18.566;2022-12-10T16:22:57;-3.30;99.90
42365;DHT22;28498;54.400;18.566;2022-12-10T16:25:27;-3.30;99.90
42365;DHT22;28498;54.400;18.566;2022-12-10T16:27:56;-3.20;99.90
42365;DHT22;28498;54.400;18.566;2022-12-10T16:30:54;-3.20;99.90
42365;DHT22;28498;54.400;18.566;2022-12-10T16:33:23;-3.00;99.90
42365;DHT22;28498;54.400;18.566;2022-12-10T16:35:52;-2.90;99.90
42365;DHT22;28498;54.400;18.566;2022-12-10T16:38:20;-2.90;99.90
42365;DHT22;28498;54.400;18.566;2022-12-10T16:40:48;-2.90;99.90
42365;DHT22;28498;54.400;18.566;2022-12-10T16:43:21;-3.00;99.90
42365;DHT22;28498;54.400;18.566;2022-12-10T16:50:45;-3.00;99.90
42365;DHT22;28498;54.400;18.566;2022-12-10T16:58:11;-2.90;99.90
42365;DHT22;28498;54.400;18.566;2022-12-10T17:00:42;-2.90;99.90
42365;DHT22;28498;54.400;18.566;2022-12-10T17:03:12;-2.70;99.90
42365;DHT22;28498;54.400;18.566;2022-12-10T17:05:56;-2.70;99.90
42365;DHT22;28498;54.400;18.566;2022-12-10T17:08:24;-2.70;99.90
42365;DHT22;28498;54.400;18.566;2022-12-10T17:10:53;-2.60;99.90
42365;DHT22;28498;54.400;18.566;2022-12-10T17:13:40;-2.50;99.90
42365;DHT22;28498;54.400;18.566;2022-12-10T17:16:17;-2.50;99.90
42365;DHT22;28498;54.400;18.566;2022-12-10T17:26:21;-2.20;99.90
42365;DHT22;28498;54.400;18.566;2022-12-10T17:28:48;-2.20;99.90
42365;DHT22;28498;54.400;18.566;2022-12-10T17:31:15;-2.30;99.90
42365;DHT22;28498;54.400;18.566;2022-12-10T17:33:42;-2.40;99.90
42365;DHT22;28498;54.400;18.566;2022-12-10T17:41:11;-2.80;99.90
42365;DHT22;28498;54.400;18.566;2022-12-10T17:43:41;-3.00;99.90
42365;DHT22;28498;54.400;18.566;2022-12-10T17:46:11;-3.10;99.90
42365;DHT22;28498;54.400;18.566;2022-12-10T17:48:39;-3.20;99.90
42365;DHT22;28498;54.400;18.566;2022-12-10T18:03:24;-3.70;99.90
42365;DHT22;28498;54.400;18.566;2022-12-10T18:05:51;-3.80;99.90
42365;DHT22;28498;54.400;18.566;2022-12-10T18:10:51;-3.80;99.90
42365;DHT22;28498;54.400;18.566;2022-12-10T18:13:23;-3.80;99.90
42365;DHT22;28498;54.400;18.566;2022-12-10T18:25:43;-4.20;99.90
42365;DHT22;28498;54.400;18.566;2022-12-10T18:38:15;-4.30;99.90
42365;DHT22;28498;54.400;18.566;2022-12-10T19:15:20;-4.70;99.90
42365;DHT22;28498;54.400;18.566;2022-12-10T19:17:48;-4.80;99.90
42365;DHT22;28498;54.400;18.566;2022-12-10T19:20:20;-4.90;99.90
42365;DHT22;28498;54.400;18.566;2022-12-10T19:22:50;-4.90;99.90
42365;DHT22;28498;54.400;18.566;2022-12-10T19:25:18;-4.90;99.90
42365;DHT22;28498;54.400;18.566;2022-12-10T19:30:23;-4.80;99.90
42365;DHT22;28498;54.400;18.566;2022-12-10T19:35:21;-4.50;99.90
42365;DHT22;28498;54.400;18.566;2022-12-10T19:40:31;-4.40;99.90
42365;DHT22;28498;54.400;18.566;2022-12-10T19:45:27;-4.30;99.90
42365;DHT22;28498;54.400;18.566;2022-12-10T19:50:31;-4.40;99.90
42365;DHT22;28498;54.400;18.566;2022-12-10T20:00:26;-4.60;99.90
42365;DHT22;28498;54.400;18.566;2022-12-10T20:10:23;-4.90;99.90
42365;DHT22;28498;54.400;18.566;2022-12-10T20:15:19;-5.00;99.90
42365;DHT22;28498;54.400;18.566;2022-12-10T20:20:35;-5.20;99.90
42365;DHT22;28498;54.400;18.566;2022-12-10T20:30:26;-5.10;99.90
42365;DHT22;28498;54.400;18.566;2022-12-10T20:32:55;-5.20;99.90
42365;DHT22;28498;54.400;18.566;2022-12-10T20:35:23;-5.20;99.90
42365;DHT22;28498;54.400;18.566;2022-12-10T20:40:20;-5.30;99.90
42365;DHT22;28498;54.400;18.566;2022-12-10T21:00:19;-5.10;99.90
42365;DHT22;28498;54.400;18.566;2022-12-10T21:10:15;-5.50;99.90
42365;DHT22;28498;54.400;18.566;2022-12-10T21:13:03;-5.60;99.90
42365;DHT22;28498;54.400;18.566;2022-12-10T21:15:32;-5.60;99.90
42365;DHT22;28498;54.400;18.566;2022-12-10T21:30:18;-5.80;99.90
42365;DHT22;28498;54.400;18.566;2022-12-10T21:40:07;-5.70;99.90
42365;DHT22;28498;54.400;18.566;2022-12-10T21:47:53;-6.00;99.90
42365;DHT22;28498;54.400;18.566;2022-12-10T22:00:10;-6.30;99.90
42365;DHT22;28498;54.400;18.566;2022-12-10T22:02:39;-6.40;99.90
42365;DHT22;28498;54.400;18.566;2022-12-10T22:05:07;-6.40;99.90
42365;DHT22;28498;54.400;18.566;2022-12-10T22:07:36;-6.40;99.90
42365;DHT22;28498;54.400;18.566;2022-12-10T22:10:05;-6.40;99.90
42365;DHT22;28498;54.400;18.566;2022-12-10T23:56:19;-6.70;99.90
42365;DHT22;28498;54.400;18.566;2022-12-10T23:58:47;-6.70;99.90
